createdAt,value
2019-02-12T00:02:22.158Z,29.30
2019-02-12T00:04:50.549Z,34.33
2019-02-12T00:07:18.947Z,38.03
2019-02-12T00:09:47.319Z,34.10
2019-02-12T00:12:15.716Z,37.50
2019-02-12T00:14:44.015Z,35.67
2019-02-12T00:17:12.403Z,36.77
2019-02-12T00:19:41.075Z,37.97
2019-02-12T00:22:09.461Z,36.93
2019-02-12T00:24:37.872Z,34.20
2019-02-12T00:27:06.250Z,33.93
2019-02-12T00:29:34.623Z,30.27
2019-02-12T00:32:03.022Z,30.10
2019-02-12T00:34:31.396Z,30.87
2019-02-12T00:36:59.732Z,30.43
2019-02-12T00:39:28.012Z,31.00
2019-02-12T00:41:56.406Z,30.83
2019-02-12T00:44:25.180Z,30.93
2019-02-12T00:46:53.543Z,30.33
2019-02-12T00:49:21.867Z,29.50
2019-02-12T00:51:50.238Z,28.53
2019-02-12T00:54:18.585Z,26.53
2019-02-12T00:56:46.900Z,27.17
2019-02-12T00:59:15.273Z,27.20
2019-02-12T01:01:43.639Z,27.53
2019-02-12T01:04:12.338Z,28.27
2019-02-12T01:06:40.734Z,28.00
2019-02-12T01:09:09.170Z,28.43
2019-02-12T01:11:37.579Z,28.30
2019-02-12T01:14:05.950Z,28.43
2019-02-12T01:16:34.320Z,28.77
2019-02-12T01:19:02.708Z,27.43
2019-02-12T01:21:31.273Z,25.17
2019-02-12T01:23:59.671Z,26.03
2019-02-12T01:26:27.985Z,26.00
2019-02-12T01:28:56.279Z,27.80
2019-02-12T01:31:24.681Z,27.10
2019-02-12T01:33:53.050Z,27.53
2019-02-12T01:36:21.440Z,25.50
2019-02-12T01:38:49.836Z,29.27
2019-02-12T01:41:18.197Z,26.73
2019-02-12T01:43:46.601Z,27.70
2019-02-12T01:46:14.969Z,25.67
2019-02-12T01:48:43.329Z,28.37
2019-02-12T01:51:11.731Z,26.93
2019-02-12T01:53:40.124Z,32.67
2019-02-12T01:56:08.516Z,31.50
2019-02-12T01:58:36.808Z,33.33
2019-02-12T02:01:05.484Z,33.43
2019-02-12T02:03:33.824Z,33.20
2019-02-12T02:06:02.159Z,34.17
2019-02-12T02:08:30.508Z,37.60
2019-02-12T02:10:59.174Z,34.43
2019-02-12T02:13:46.923Z,31.27
2019-02-12T02:16:15.302Z,30.47
2019-02-12T02:18:43.669Z,28.43
2019-02-12T02:21:12.441Z,28.40
2019-02-12T02:23:40.818Z,29.10
2019-02-12T02:26:09.188Z,28.00
2019-02-12T02:28:37.512Z,28.90
2019-02-12T02:31:05.887Z,28.63
2019-02-12T02:33:34.277Z,29.67
2019-02-12T02:36:02.710Z,28.60
2019-02-12T02:38:31.105Z,33.10
2019-02-12T02:40:59.510Z,23.83
2019-02-12T02:43:27.882Z,23.03
2019-02-12T02:45:56.641Z,23.30
2019-02-12T02:48:25.015Z,21.60
2019-02-12T02:50:53.396Z,26.30
2019-02-12T02:53:21.830Z,32.80
2019-02-12T02:55:57.479Z,31.17
2019-02-12T02:58:25.849Z,22.43
2019-02-12T03:00:54.631Z,19.27
2019-02-12T03:03:23.428Z,18.43
2019-02-12T03:05:51.793Z,20.37
2019-02-12T03:08:20.152Z,20.17
2019-02-12T03:10:48.477Z,18.80
2019-02-12T03:13:16.862Z,19.40
2019-02-12T03:15:45.191Z,30.40
2019-02-12T03:18:13.567Z,27.57
2019-02-12T03:20:41.977Z,25.93
2019-02-12T03:23:10.347Z,22.60
2019-02-12T03:25:38.674Z,19.73
2019-02-12T03:28:07.050Z,20.73
2019-02-12T03:30:35.420Z,21.83
2019-02-12T03:33:03.833Z,19.33
2019-02-12T03:35:32.202Z,24.17
2019-02-12T03:38:00.611Z,22.93
2019-02-12T03:40:29.361Z,23.17
2019-02-12T03:42:57.730Z,39.83
2019-02-12T03:45:26.110Z,38.73
2019-02-12T03:47:54.478Z,25.90
2019-02-12T03:50:22.874Z,25.10
2019-02-12T03:52:51.213Z,21.93
2019-02-12T03:55:19.596Z,28.17
2019-02-12T03:57:47.981Z,29.33
2019-02-12T04:00:16.735Z,26.63
2019-02-12T04:03:00.206Z,25.53
2019-02-12T04:05:28.576Z,20.30
2019-02-12T04:07:56.997Z,17.53
2019-02-12T04:10:25.374Z,19.10
2019-02-12T04:12:53.739Z,16.50
2019-02-12T04:15:22.200Z,19.67
2019-02-12T04:17:50.575Z,22.13
2019-02-12T04:20:18.983Z,22.97
2019-02-12T04:22:47.357Z,23.40
2019-02-12T04:25:15.750Z,22.90
2019-02-12T04:27:44.149Z,20.77
2019-02-12T04:30:12.541Z,21.00
2019-02-12T04:32:40.930Z,22.13
2019-02-12T04:35:09.261Z,20.27
2019-02-12T04:37:37.594Z,22.77
2019-02-12T04:40:09.131Z,21.97
2019-02-12T04:42:37.501Z,21.47
2019-02-12T04:45:08.945Z,29.80
2019-02-12T04:47:37.319Z,30.93
2019-02-12T04:50:11.632Z,29.93
2019-02-12T04:52:39.959Z,28.20
2019-02-12T04:55:10.179Z,29.63
2019-02-12T04:57:38.574Z,26.47
2019-02-12T05:00:13.170Z,27.07
2019-02-12T05:02:41.894Z,25.30
2019-02-12T05:05:11.088Z,28.17
2019-02-12T05:07:39.460Z,22.90
2019-02-12T05:10:10.749Z,25.93
2019-02-12T05:12:39.115Z,25.70
2019-02-12T05:15:09.269Z,26.07
2019-02-12T05:17:37.637Z,25.87
2019-02-12T05:20:13.958Z,25.47
2019-02-12T05:22:43.867Z,25.77
2019-02-12T05:25:12.760Z,26.40
2019-02-12T05:27:41.145Z,28.00
2019-02-12T05:30:12.418Z,30.43
2019-02-12T05:32:41.134Z,28.27
2019-02-12T05:35:09.517Z,31.73
2019-02-12T05:37:37.898Z,26.57
2019-02-12T05:40:10.567Z,25.10
2019-02-12T05:42:38.929Z,21.87
2019-02-12T05:45:10.140Z,22.07
2019-02-12T05:47:57.913Z,27.37
2019-02-12T05:50:26.327Z,25.00
2019-02-12T05:52:55.157Z,31.67
2019-02-12T05:55:23.678Z,31.60
2019-02-12T05:57:52.080Z,29.17
2019-02-12T06:00:22.097Z,28.70
2019-02-12T06:02:50.469Z,29.67
2019-02-12T06:05:26.672Z,27.63
2019-02-12T06:07:55.035Z,33.93
2019-02-12T06:10:24.287Z,28.03
2019-02-12T06:12:52.649Z,28.70
2019-02-12T06:15:21.057Z,28.00
2019-02-12T06:17:49.429Z,32.30
2019-02-12T06:20:17.807Z,30.97
2019-02-12T06:22:46.190Z,31.67
2019-02-12T06:25:14.606Z,32.60
2019-02-12T06:27:43.073Z,28.70
2019-02-12T06:30:11.448Z,28.40
2019-02-12T06:32:39.813Z,27.53
2019-02-12T06:35:09.462Z,23.67
2019-02-12T06:37:38.212Z,30.47
2019-02-12T06:40:11.043Z,29.90
2019-02-12T06:42:39.433Z,27.70
2019-02-12T06:45:13.189Z,26.47
2019-02-12T06:47:41.584Z,27.33
2019-02-12T06:50:11.554Z,28.73
2019-02-12T06:52:39.896Z,33.33
2019-02-12T06:55:10.368Z,29.43
2019-02-12T06:57:38.704Z,31.47
2019-02-12T07:00:14.488Z,34.77
2019-02-12T07:03:08.903Z,24.90
2019-02-12T07:05:39.213Z,29.97
2019-02-12T07:08:28.927Z,32.27
2019-02-12T07:11:00.572Z,31.53
2019-02-12T07:13:53.002Z,31.97
2019-02-12T07:16:25.008Z,36.43
2019-02-12T07:19:05.528Z,35.03
2019-02-12T07:21:42.771Z,34.17
2019-02-12T07:24:20.392Z,30.53
2019-02-12T07:27:04.069Z,34.00
2019-02-12T07:29:47.490Z,31.40
2019-02-12T07:32:37.283Z,33.13
2019-02-12T07:35:29.631Z,28.50
2019-02-12T07:38:10.243Z,26.50
2019-02-12T07:40:47.651Z,26.47
2019-02-12T07:43:40.250Z,28.67
2019-02-12T07:46:29.909Z,28.00
2019-02-12T07:49:10.322Z,31.27
2019-02-12T07:51:47.956Z,32.40
2019-02-12T07:54:22.682Z,34.23
2019-02-12T07:56:57.348Z,33.63
2019-02-12T07:59:41.127Z,33.27
2019-02-12T08:02:18.677Z,31.40
2019-02-12T08:05:08.129Z,31.17
2019-02-12T08:08:06.787Z,33.63
2019-02-12T08:10:44.123Z,31.33
2019-02-12T08:13:24.597Z,39.33
2019-02-12T08:16:14.690Z,33.03
2019-02-12T08:18:51.956Z,28.03
2019-02-12T08:21:35.398Z,26.00
2019-02-12T08:24:15.855Z,28.97
2019-02-12T08:27:01.830Z,26.63
2019-02-12T08:29:33.426Z,28.40
2019-02-12T08:32:23.708Z,32.50
2019-02-12T08:34:58.356Z,27.00
2019-02-12T08:37:31.899Z,33.10
2019-02-12T08:40:09.251Z,31.37
2019-02-12T08:42:40.887Z,33.23
2019-02-12T08:45:41.383Z,32.47
2019-02-12T08:48:22.401Z,27.70
2019-02-12T08:51:17.977Z,34.10
2019-02-12T08:54:09.196Z,32.50
2019-02-12T08:56:55.426Z,30.43
2019-02-12T08:59:43.732Z,30.03
2019-02-12T09:02:18.157Z,31.73
2019-02-12T09:05:14.148Z,36.90
2019-02-12T09:07:48.907Z,34.10
2019-02-12T09:10:20.545Z,34.83
2019-02-12T09:13:01.029Z,29.70
2019-02-12T09:15:50.766Z,24.43
2019-02-12T09:18:42.244Z,32.50
2019-02-12T09:21:45.915Z,30.13
2019-02-12T09:24:23.523Z,33.53
2019-02-12T09:26:57.745Z,28.37
2019-02-12T09:29:50.466Z,29.87
2019-02-12T09:32:56.731Z,23.57
2019-02-12T09:35:37.387Z,20.60
2019-02-12T09:38:11.916Z,19.27
2019-02-12T09:40:49.509Z,19.77
2019-02-12T09:43:29.986Z,19.90
2019-02-12T09:46:07.172Z,20.93
2019-02-12T09:48:38.827Z,21.53
2019-02-12T09:51:25.298Z,20.00
2019-02-12T09:54:31.119Z,20.83
2019-02-12T09:57:03.199Z,22.43
2019-02-12T09:59:37.324Z,20.20
2019-02-12T10:02:24.027Z,22.87
2019-02-12T10:05:21.573Z,22.63
2019-02-12T10:08:09.883Z,20.77
2019-02-12T10:10:45.474Z,22.17
2019-02-12T10:13:29.275Z,22.03
2019-02-12T10:16:15.981Z,21.17
2019-02-12T10:18:50.836Z,22.83
2019-02-12T10:21:28.126Z,21.77
2019-02-12T10:24:19.995Z,22.23
2019-02-12T10:27:24.694Z,20.33
2019-02-12T10:30:14.354Z,18.67
2019-02-12T10:32:43.096Z,18.70
2019-02-12T10:35:11.493Z,18.03
2019-02-12T10:37:39.807Z,18.70
2019-02-12T10:40:08.175Z,18.57
2019-02-12T10:42:36.599Z,18.30
2019-02-12T10:45:07.193Z,16.93
2019-02-12T10:47:35.563Z,17.90
2019-02-12T10:50:04.600Z,17.50
2019-02-12T10:52:33.298Z,16.40
2019-02-12T10:55:01.698Z,15.23
2019-02-12T10:57:30.354Z,14.77
2019-02-12T10:59:58.738Z,14.40
2019-02-12T11:02:27.537Z,13.73
2019-02-12T11:04:55.983Z,13.67
2019-02-12T11:07:24.324Z,13.57
2019-02-12T11:09:52.695Z,13.83
2019-02-12T11:12:21.099Z,12.93
2019-02-12T11:14:49.490Z,13.23
2019-02-12T11:17:17.880Z,14.00
2019-02-12T11:19:46.264Z,13.17
2019-02-12T11:22:14.627Z,12.60
2019-02-12T11:24:42.958Z,13.27
2019-02-12T11:27:11.666Z,13.17
2019-02-12T11:29:40.050Z,12.70
2019-02-12T11:32:08.432Z,12.07
2019-02-12T11:34:36.805Z,13.03
2019-02-12T11:37:05.206Z,12.43
2019-02-12T11:39:33.579Z,13.33
2019-02-12T11:42:01.929Z,12.80
2019-02-12T11:44:30.339Z,12.90
2019-02-12T11:46:58.682Z,13.63
2019-02-12T11:49:27.084Z,13.17
2019-02-12T11:51:55.454Z,13.83
2019-02-12T11:54:23.756Z,13.40
2019-02-12T11:56:52.071Z,12.73
2019-02-12T11:59:20.377Z,14.10
2019-02-12T12:01:48.761Z,13.40
2019-02-12T12:04:17.084Z,13.63
2019-02-12T12:06:45.481Z,13.57
2019-02-12T12:09:13.743Z,12.67
2019-02-12T12:11:42.423Z,13.17
2019-02-12T12:14:10.805Z,12.43
2019-02-12T12:16:39.184Z,12.70
2019-02-12T12:19:07.576Z,13.43
2019-02-12T12:21:35.874Z,12.83
2019-02-12T12:24:04.242Z,11.90
2019-02-12T12:26:32.615Z,11.40
2019-02-12T12:29:00.922Z,12.10
2019-02-12T12:31:29.317Z,12.37
2019-02-12T12:33:57.619Z,12.87
2019-02-12T12:36:25.933Z,12.17
2019-02-12T12:38:54.241Z,12.37
2019-02-12T12:41:22.622Z,12.40
2019-02-12T12:43:51.034Z,12.10
2019-02-12T12:46:19.390Z,12.47
2019-02-12T12:48:47.760Z,12.10
2019-02-12T12:51:16.155Z,11.77
2019-02-12T12:53:44.527Z,12.77
2019-02-12T12:56:12.928Z,11.90
2019-02-12T12:58:41.238Z,12.67
2019-02-12T13:01:09.639Z,12.53
2019-02-12T13:03:38.019Z,11.77
2019-02-12T13:06:06.397Z,12.23
2019-02-12T13:08:34.716Z,12.03
2019-02-12T13:11:03.094Z,11.80
2019-02-12T13:13:31.477Z,12.00
2019-02-12T13:15:59.816Z,12.83
2019-02-12T13:18:28.176Z,11.10
2019-02-12T13:20:56.547Z,11.57
2019-02-12T13:23:24.842Z,11.53
2019-02-12T13:25:53.247Z,11.77
2019-02-12T13:28:21.627Z,10.93
2019-02-12T13:30:49.992Z,11.50
2019-02-12T13:33:18.309Z,10.77
2019-02-12T13:35:46.684Z,10.30
2019-02-12T13:38:15.085Z,11.33
2019-02-12T13:40:43.454Z,11.17
2019-02-12T13:43:11.825Z,10.93
2019-02-12T13:45:40.220Z,11.07
2019-02-12T13:48:08.594Z,10.63
2019-02-12T13:50:37.316Z,11.17
2019-02-12T13:53:05.628Z,11.47
2019-02-12T13:55:33.952Z,10.90
2019-02-12T13:58:02.332Z,10.83
2019-02-12T14:00:30.629Z,12.33
2019-02-12T14:02:59.005Z,12.00
2019-02-12T14:05:27.375Z,11.83
2019-02-12T14:07:55.748Z,12.33
2019-02-12T14:10:24.115Z,12.60
2019-02-12T14:12:52.500Z,13.47
2019-02-12T14:15:20.892Z,12.80
2019-02-12T14:17:49.240Z,13.37
2019-02-12T14:20:18.141Z,12.77
2019-02-12T14:22:46.502Z,11.13
2019-02-12T14:25:16.018Z,11.60
2019-02-12T14:27:44.804Z,12.20
2019-02-12T14:30:14.727Z,12.93
2019-02-12T14:32:43.123Z,13.73
2019-02-12T14:35:12.335Z,13.73
2019-02-12T14:37:40.716Z,12.53
2019-02-12T14:40:11.426Z,12.37
2019-02-12T14:42:39.791Z,12.00
2019-02-12T14:45:14.509Z,11.70
2019-02-12T14:47:42.885Z,10.10
2019-02-12T14:50:19.292Z,8.20
2019-02-12T14:52:48.030Z,6.97
2019-02-12T14:55:16.367Z,8.17
2019-02-12T14:57:44.756Z,7.00
2019-02-12T15:00:15.886Z,6.73
2019-02-12T15:02:44.275Z,4.70
2019-02-12T15:05:12.683Z,5.13
2019-02-12T15:07:40.989Z,3.30
2019-02-12T15:10:14.201Z,2.20
2019-02-12T15:12:42.995Z,1.97
2019-02-12T15:15:11.626Z,3.07
2019-02-12T15:17:40.010Z,3.20
2019-02-12T15:20:12.450Z,3.03
2019-02-12T15:22:40.832Z,3.27
2019-02-12T15:25:10.346Z,3.23
2019-02-12T15:27:38.749Z,3.10
2019-02-12T15:30:10.355Z,3.07
2019-02-12T15:32:38.726Z,3.77
2019-02-12T15:35:08.758Z,3.53
2019-02-12T15:37:37.119Z,3.37
2019-02-12T15:40:11.832Z,3.43
2019-02-12T15:42:40.227Z,3.90
2019-02-12T15:45:17.348Z,3.47
2019-02-12T15:47:45.724Z,3.10
2019-02-12T15:50:14.096Z,2.60
2019-02-12T15:52:42.503Z,3.13
2019-02-12T15:55:14.582Z,3.43
2019-02-12T15:57:45.679Z,3.00
2019-02-12T16:00:20.409Z,3.30
2019-02-12T16:02:48.558Z,2.90
2019-02-12T16:05:16.931Z,2.90
2019-02-12T16:07:47.385Z,3.00
2019-02-12T16:10:19.761Z,2.83
2019-02-12T16:12:48.922Z,3.47
2019-02-12T16:15:21.605Z,3.90
2019-02-12T16:17:49.322Z,3.47
2019-02-12T16:20:17.707Z,3.10
2019-02-12T16:22:46.090Z,4.00
2019-02-12T16:25:15.547Z,4.50
2019-02-12T16:27:44.304Z,4.87
2019-02-12T16:30:20.605Z,4.57
2019-02-12T16:32:48.944Z,5.00
2019-02-12T16:35:18.107Z,4.70
2019-02-12T16:37:46.469Z,5.50
2019-02-12T16:40:15.930Z,5.40
2019-02-12T16:42:44.359Z,5.80
2019-02-12T16:45:18.793Z,7.00
2019-02-12T16:47:47.211Z,7.60
2019-02-12T16:50:15.554Z,8.33
2019-02-12T16:52:43.902Z,8.67
2019-02-12T16:55:12.289Z,8.73
2019-02-12T16:57:40.615Z,10.33
2019-02-12T17:00:12.008Z,11.43
2019-02-12T17:02:40.399Z,10.90
2019-02-12T17:05:11.162Z,12.23
2019-02-12T17:07:39.844Z,13.73
2019-02-12T17:10:09.836Z,14.37
2019-02-12T17:12:38.308Z,14.63
2019-02-12T17:15:09.573Z,14.87
2019-02-12T17:17:38.001Z,15.60
2019-02-12T17:20:18.010Z,15.00
2019-02-12T17:22:46.366Z,15.97
2019-02-12T17:25:15.013Z,15.50
2019-02-12T17:27:43.386Z,16.00
2019-02-12T17:30:19.180Z,16.00
2019-02-12T17:32:47.598Z,17.13
2019-02-12T17:35:15.965Z,18.00
2019-02-12T17:37:44.329Z,17.73
2019-02-12T17:40:17.841Z,17.07
2019-02-12T17:42:46.217Z,17.53
2019-02-12T17:45:15.544Z,16.93
2019-02-12T17:47:43.918Z,17.17
2019-02-12T17:50:15.665Z,16.70
2019-02-12T17:52:44.049Z,17.23
2019-02-12T17:55:12.440Z,17.23
2019-02-12T17:57:40.816Z,17.87
2019-02-12T18:00:38.172Z,18.23
2019-02-12T18:03:06.514Z,17.67
2019-02-12T18:05:34.931Z,17.60
2019-02-12T18:08:03.545Z,17.10
2019-02-12T18:10:32.300Z,17.43
2019-02-12T18:13:00.699Z,17.80
2019-02-12T18:15:29.072Z,17.20
2019-02-12T18:17:57.465Z,19.17
2019-02-12T18:20:26.771Z,18.03
2019-02-12T18:22:55.321Z,17.17
2019-02-12T18:25:23.765Z,18.53
2019-02-12T18:27:52.178Z,17.27
2019-02-12T18:30:20.598Z,18.73
2019-02-12T18:32:48.983Z,17.53
2019-02-12T18:35:17.366Z,17.40
2019-02-12T18:37:45.765Z,16.13
2019-02-12T18:40:15.369Z,16.40
2019-02-12T18:42:43.762Z,16.17
2019-02-12T18:45:20.785Z,16.40
2019-02-12T18:47:49.180Z,16.00
2019-02-12T18:50:17.589Z,16.17
2019-02-12T18:52:45.919Z,16.47
2019-02-12T18:55:15.422Z,16.53
2019-02-12T18:57:43.835Z,18.33
2019-02-12T19:00:20.483Z,18.50
2019-02-12T19:02:48.889Z,19.50
2019-02-12T19:05:17.329Z,19.03
2019-02-12T19:07:46.009Z,19.27
2019-02-12T19:10:16.168Z,17.83
2019-02-12T19:12:44.537Z,19.13
2019-02-12T19:15:20.213Z,19.90
2019-02-12T19:18:03.807Z,20.37
2019-02-12T19:20:32.133Z,19.60
2019-02-12T19:23:00.512Z,19.90
2019-02-12T19:25:28.889Z,20.63
2019-02-12T19:27:57.298Z,21.43
2019-02-12T19:30:26.067Z,22.03
2019-02-12T19:32:54.440Z,21.67
2019-02-12T19:35:22.834Z,20.03
2019-02-12T19:37:51.234Z,19.60
2019-02-12T19:40:19.896Z,19.53
2019-02-12T19:42:48.271Z,18.70
2019-02-12T19:45:19.603Z,19.60
2019-02-12T19:47:47.937Z,18.00
2019-02-12T19:50:16.257Z,17.57
2019-02-12T19:52:44.594Z,18.13
2019-02-12T19:55:12.980Z,17.57
2019-02-12T19:57:41.362Z,17.00
2019-02-12T20:00:19.255Z,17.30
2019-02-12T20:02:48.285Z,17.17
2019-02-12T20:05:16.673Z,17.70
2019-02-12T20:07:45.028Z,17.77
2019-02-12T20:10:14.343Z,17.60
2019-02-12T20:12:42.675Z,17.47
2019-02-12T20:15:19.953Z,17.37
2019-02-12T20:17:48.635Z,17.70
2019-02-12T20:20:17.011Z,19.30
2019-02-12T20:22:45.378Z,19.53
2019-02-12T20:25:13.769Z,18.03
2019-02-12T20:27:42.132Z,17.73
2019-02-12T20:30:13.433Z,18.10
2019-02-12T20:32:41.820Z,17.73
2019-02-12T20:35:12.142Z,17.17
2019-02-12T20:37:40.549Z,17.43
2019-02-12T20:40:13.499Z,17.27
2019-02-12T20:42:41.781Z,17.03
2019-02-12T20:45:18.271Z,17.37
2019-02-12T20:47:46.665Z,18.70
2019-02-12T20:50:22.825Z,20.73
2019-02-12T20:52:51.279Z,21.77
2019-02-12T20:55:19.753Z,21.93
2019-02-12T20:57:48.129Z,23.00
2019-02-12T21:00:23.643Z,22.77
2019-02-12T21:02:52.010Z,23.43
2019-02-12T21:05:20.391Z,23.27
2019-02-12T21:07:49.101Z,23.37
2019-02-12T21:10:22.141Z,25.00
2019-02-12T21:12:50.521Z,24.97
2019-02-12T21:15:26.933Z,25.70
2019-02-12T21:17:55.300Z,25.30
2019-02-12T21:20:23.733Z,26.77
2019-02-12T21:22:52.120Z,25.83
2019-02-12T21:25:20.843Z,25.00
2019-02-12T21:27:49.238Z,25.87
2019-02-12T21:30:29.356Z,26.97
2019-02-12T21:32:57.749Z,27.07
2019-02-12T21:35:26.107Z,26.77
2019-02-12T21:37:54.504Z,27.20
2019-02-12T21:40:25.284Z,27.00
2019-02-12T21:42:53.643Z,28.43
2019-02-12T21:45:22.071Z,27.10
2019-02-12T21:47:50.427Z,28.53
2019-02-12T21:50:18.757Z,26.80
2019-02-12T21:52:47.163Z,29.77
2019-02-12T21:55:19.805Z,28.57
2019-02-12T21:57:48.198Z,30.20
2019-02-12T22:00:21.694Z,29.67
2019-02-12T22:02:50.083Z,30.57
2019-02-12T22:05:18.526Z,28.07
2019-02-12T22:07:46.902Z,30.10
2019-02-12T22:10:20.541Z,31.23
2019-02-12T22:12:48.913Z,28.57
2019-02-12T22:15:17.307Z,29.30
2019-02-12T22:17:45.697Z,28.47
2019-02-12T22:20:21.144Z,29.20
2019-02-12T22:22:49.455Z,28.80
2019-02-12T22:25:17.741Z,29.77
2019-02-12T22:27:46.146Z,31.10
2019-02-12T22:30:19.962Z,29.73
2019-02-12T22:32:48.357Z,28.67
2019-02-12T22:35:16.727Z,28.33
2019-02-12T22:37:45.028Z,27.60
2019-02-12T22:40:15.007Z,27.17
2019-02-12T22:42:43.391Z,26.93
2019-02-12T22:45:16.933Z,27.73
2019-02-12T22:47:45.310Z,27.07
2019-02-12T22:50:13.956Z,26.83
2019-02-12T22:52:42.345Z,26.70
2019-02-12T22:55:11.010Z,26.57
2019-02-12T22:57:39.401Z,25.77
2019-02-12T23:00:33.446Z,26.17
2019-02-12T23:03:01.816Z,28.50
2019-02-12T23:05:30.220Z,27.03
2019-02-12T23:07:58.603Z,26.73
2019-02-12T23:10:26.989Z,26.80
2019-02-12T23:12:55.357Z,27.53
2019-02-12T23:15:23.769Z,27.43
2019-02-12T23:17:52.158Z,28.30
2019-02-12T23:20:20.481Z,26.50
2019-02-12T23:22:48.830Z,26.07
2019-02-12T23:25:17.190Z,26.80
2019-02-12T23:27:45.828Z,26.40
2019-02-12T23:30:14.200Z,27.50
2019-02-12T23:32:42.582Z,26.70
2019-02-12T23:35:11.358Z,26.67
2019-02-12T23:37:39.724Z,24.87
2019-02-12T23:40:08.808Z,26.70
2019-02-12T23:42:37.172Z,26.03
2019-02-12T23:45:07.377Z,26.17
2019-02-12T23:47:35.773Z,27.50
2019-02-12T23:50:05.425Z,27.27
2019-02-12T23:52:33.832Z,26.53
2019-02-12T23:55:02.210Z,26.50
2019-02-12T23:57:30.670Z,26.13
2019-02-12T23:59:59.037Z,26.63
